Time;durP1;ratioP1;P1;durP2;ratioP2;P2;SDS_P1;SDS_P2;PMS_P1;PMS_P2;Temp;Humidity;BMP_temperature;BMP_pressure;BME280_temperature;BME280_humidity;BME280_pressure;Samples;Min_cycle;Max_cycle;Signal;HPM_P1;HPM_P2
2023/02/14 00:00:40;;;;;;;27.40;18.83;;;6.50;99.90;;;;;;5062504;28;20496;-78
2023/02/14 00:03:13;;;;;;;28.23;18.80;;;6.50;99.90;;;;;;5067595;28;20490;-80
2023/02/14 00:05:44;;;;;;;27.80;17.40;;;6.50;99.90;;;;;;5071100;28;20551;-79
2023/02/14 00:08:18;;;;;;;27.97;17.70;;;6.50;99.90;;;;;;5066815;28;20608;-79
2023/02/14 00:11:01;;;;;;;28.23;18.40;;;6.50;99.90;;;;;;5060595;28;20604;-78
2023/02/14 00:13:31;;;;;;;28.60;19.77;;;6.50;99.90;;;;;;5062325;28;20505;-78
2023/02/14 00:16:10;;;;;;;29.57;18.90;;;6.50;99.90;;;;;;5061667;28;20478;-78
2023/02/14 00:21:37;;;;;;;27.50;19.30;;;6.40;99.90;;;;;;5066013;28;20485;-80
2023/02/14 00:24:11;;;;;;;29.03;19.23;;;6.40;99.90;;;;;;5070561;28;20492;-78
2023/02/14 00:26:40;;;;;;;27.53;19.00;;;6.40;99.90;;;;;;5073049;28;20474;-79
2023/02/14 00:29:14;;;;;;;27.37;18.40;;;6.40;99.90;;;;;;5073666;28;20479;-80
2023/02/14 00:31:44;;;;;;;26.27;18.63;;;6.30;99.90;;;;;;5062200;28;20496;-77
2023/02/14 00:34:16;;;;;;;25.90;18.43;;;6.30;99.90;;;;;;5068018;28;20544;-78
2023/02/14 00:36:54;;;;;;;30.50;19.00;;;6.30;99.90;;;;;;5072696;28;20493;-78
2023/02/14 00:39:25;;;;;;;28.93;19.60;;;6.30;99.90;;;;;;5076973;28;20547;-78
2023/02/14 00:41:56;;;;;;;29.20;17.73;;;6.40;99.90;;;;;;5071098;28;20502;-77
2023/02/14 00:44:38;;;;;;;28.10;18.13;;;6.30;99.90;;;;;;5071436;28;20585;-79
2023/02/14 00:47:10;;;;;;;28.50;18.53;;;6.30;99.90;;;;;;5076933;28;20489;-77
2023/02/14 00:49:47;;;;;;;30.67;19.37;;;6.30;99.90;;;;;;5072193;28;20504;-78
2023/02/14 00:52:21;;;;;;;27.07;18.70;;;6.30;99.90;;;;;;5068113;28;20493;-77
2023/02/14 00:54:56;;;;;;;28.80;18.47;;;6.30;99.90;;;;;;5075392;28;20474;-78
2023/02/14 00:57:28;;;;;;;27.07;18.60;;;6.30;99.90;;;;;;5078964;28;20519;-78
2023/02/14 00:59:56;;;;;;;28.33;19.67;;;6.30;99.90;;;;;;5068618;28;20504;-78
2023/02/14 01:02:28;;;;;;;26.40;18.00;;;6.30;99.90;;;;;;5066988;28;20969;-77
2023/02/14 01:05:01;;;;;;;25.00;17.87;;;6.30;99.90;;;;;;5067448;28;21025;-77
2023/02/14 01:07:31;;;;;;;28.00;18.77;;;6.20;99.90;;;;;;5067676;28;20524;-79
2023/02/14 01:10:03;;;;;;;29.10;17.90;;;6.20;99.90;;;;;;5067126;28;20501;-79
2023/02/14 01:15:20;;;;;;;27.47;19.13;;;6.20;99.90;;;;;;5061852;28;22516;-77
2023/02/14 01:17:53;;;;;;;27.00;18.03;;;6.20;99.90;;;;;;5063694;28;20477;-78
2023/02/14 01:20:27;;;;;;;25.40;16.93;;;6.20;99.90;;;;;;5064435;28;20473;-77
2023/02/14 01:22:57;;;;;;;28.87;17.97;;;6.20;99.90;;;;;;5066822;28;20517;-77
2023/02/14 01:25:32;;;;;;;26.40;18.70;;;6.20;99.90;;;;;;5066402;28;20527;-77
2023/02/14 01:28:05;;;;;;;30.63;18.87;;;6.20;99.90;;;;;;5064442;28;20489;-77
2023/02/14 01:30:37;;;;;;;28.40;18.13;;;6.20;99.90;;;;;;5055422;28;20939;-77
2023/02/14 01:33:08;;;;;;;28.67;17.83;;;6.20;99.90;;;;;;5067565;28;20483;-77
2023/02/14 01:35:41;;;;;;;28.30;18.73;;;6.20;99.90;;;;;;5053131;28;20503;-77
2023/02/14 01:38:09;;;;;;;25.97;18.67;;;6.20;99.90;;;;;;5062489;28;20907;-77
2023/02/14 01:40:44;;;;;;;28.47;18.70;;;6.20;99.90;;;;;;5062533;28;20492;-77
2023/02/14 01:43:19;;;;;;;29.80;18.30;;;6.20;99.90;;;;;;5077611;22;20507;-73
2023/02/14 01:45:53;;;;;;;25.03;16.57;;;6.20;99.90;;;;;;5069527;28;20987;-73
2023/02/14 01:48:22;;;;;;;26.50;16.87;;;6.20;99.90;;;;;;5079539;28;20488;-73
2023/02/14 01:50:53;;;;;;;25.43;17.33;;;6.20;99.90;;;;;;5078818;28;22508;-74
2023/02/14 01:53:28;;;;;;;28.93;18.47;;;6.10;99.90;;;;;;5076837;28;20503;-73
2023/02/14 01:56:12;;;;;;;23.90;17.47;;;6.10;99.90;;;;;;5080359;28;21110;-73
2023/02/14 01:58:47;;;;;;;28.13;17.63;;;6.10;99.90;;;;;;5077560;28;20538;-73
2023/02/14 02:01:27;;;;;;;25.63;17.53;;;6.10;99.90;;;;;;5067121;28;20472;-74
2023/02/14 02:04:01;;;;;;;26.27;16.80;;;6.10;99.90;;;;;;5069013;28;20491;-74
2023/02/14 02:06:35;;;;;;;27.33;18.20;;;6.10;99.90;;;;;;5071476;28;20524;-73
2023/02/14 02:09:17;;;;;;;27.53;19.10;;;6.10;99.90;;;;;;5066149;28;20487;-73
2023/02/14 02:11:46;;;;;;;25.20;17.50;;;6.10;99.90;;;;;;5066478;28;20469;-72
2023/02/14 02:14:19;;;;;;;24.93;17.83;;;6.10;99.90;;;;;;5065052;28;20493;-72
2023/02/14 02:17:24;;;;;;;28.53;18.73;;;6.10;99.90;;;;;;5070584;28;21018;-73
2023/02/14 02:20:31;;;;;;;24.00;17.33;;;6.10;99.90;;;;;;5076063;28;20480;-74
2023/02/14 02:23:42;;;;;;;29.67;18.40;;;6.00;99.90;;;;;;5071889;28;20567;-74
2023/02/14 02:26:41;;;;;;;28.73;18.10;;;6.00;99.90;;;;;;5078010;28;22396;-74
2023/02/14 02:29:32;;;;;;;28.10;18.27;;;6.00;99.90;;;;;;5073146;28;20493;-73
2023/02/14 02:32:44;;;;;;;25.67;17.93;;;6.00;99.90;;;;;;5078064;28;20515;-73
2023/02/14 02:35:47;;;;;;;25.30;18.37;;;6.00;99.90;;;;;;5075302;28;20497;-74
2023/02/14 02:38:36;;;;;;;26.47;18.73;;;6.00;99.90;;;;;;5073067;28;20495;-73
2023/02/14 02:41:16;;;;;;;29.27;18.73;;;5.90;99.90;;;;;;5070644;28;20468;-73
2023/02/14 02:43:55;;;;;;;30.63;18.53;;;5.90;99.90;;;;;;5077480;28;20495;-74
2023/02/14 02:55:21;;;;;;;28.70;18.20;;;5.90;99.90;;;;;;5074249;28;20476;-74
2023/02/14 02:57:52;;;;;;;28.00;18.67;;;5.90;99.90;;;;;;5075610;28;21252;-74
2023/02/14 03:00:28;;;;;;;30.07;18.83;;;5.90;99.90;;;;;;5070999;28;20476;-75
2023/02/14 03:05:48;;;;;;;27.97;17.93;;;5.80;99.90;;;;;;5080488;28;20480;-74
2023/02/14 03:08:23;;;;;;;28.27;17.60;;;5.80;99.90;;;;;;5078885;28;20584;-72
2023/02/14 03:10:54;;;;;;;32.40;21.13;;;5.80;99.90;;;;;;5080106;28;20469;-74
2023/02/14 03:14:05;;;;;;;29.07;19.87;;;5.80;99.90;;;;;;5071842;28;21148;-74
2023/02/14 03:16:50;;;;;;;31.13;19.00;;;5.80;99.90;;;;;;5081866;28;20468;-74
2023/02/14 03:19:31;;;;;;;28.03;18.93;;;5.80;99.90;;;;;;5076711;28;21026;-74
2023/02/14 03:22:07;;;;;;;27.97;19.63;;;5.80;99.90;;;;;;5084715;28;20468;-74
2023/02/14 03:24:53;;;;;;;32.33;19.73;;;5.80;99.90;;;;;;5076669;28;20471;-74
2023/02/14 03:27:26;;;;;;;32.20;20.37;;;5.70;99.90;;;;;;5078713;28;20472;-75
2023/02/14 03:30:08;;;;;;;30.87;20.77;;;5.70;99.90;;;;;;5081082;28;20483;-74
2023/02/14 03:32:46;;;;;;;30.20;20.33;;;5.70;99.90;;;;;;5080869;28;20462;-74
2023/02/14 03:35:22;;;;;;;35.73;20.33;;;5.80;99.90;;;;;;5080457;28;20891;-74
2023/02/14 03:37:57;;;;;;;32.07;20.93;;;5.80;99.90;;;;;;5082814;28;20510;-74
2023/02/14 03:40:33;;;;;;;33.00;20.63;;;5.80;99.90;;;;;;5076713;28;20468;-74
2023/02/14 03:43:14;;;;;;;31.30;20.70;;;5.80;99.90;;;;;;5081158;28;21079;-73
2023/02/14 03:45:47;;;;;;;31.67;21.43;;;5.80;99.90;;;;;;5079134;28;20465;-74
2023/02/14 03:48:18;;;;;;;33.87;21.50;;;5.80;99.90;;;;;;5084074;28;20856;-75
2023/02/14 03:50:52;;;;;;;34.13;20.43;;;5.80;99.90;;;;;;5085940;28;20539;-74
2023/02/14 03:53:31;;;;;;;31.10;20.60;;;5.80;99.90;;;;;;5084605;28;20501;-73
2023/02/14 03:56:08;;;;;;;33.60;21.00;;;5.80;99.90;;;;;;5079858;28;20492;-73
2023/02/14 03:58:42;;;;;;;33.67;21.27;;;5.80;99.90;;;;;;5077543;28;20480;-73
2023/02/14 04:01:20;;;;;;;31.70;19.20;;;5.80;99.90;;;;;;5081423;28;20480;-74
2023/02/14 04:03:56;;;;;;;31.03;20.00;;;5.80;99.90;;;;;;5079710;28;20570;-74
2023/02/14 04:06:26;;;;;;;31.20;20.20;;;5.80;99.90;;;;;;5074058;28;20472;-74
2023/02/14 04:08:57;;;;;;;30.57;20.03;;;5.80;99.90;;;;;;5080014;28;20484;-74
2023/02/14 04:11:34;;;;;;;32.70;20.30;;;5.70;99.90;;;;;;5082443;28;20987;-74
2023/02/14 04:14:02;;;;;;;32.40;19.63;;;5.70;99.90;;;;;;5089196;28;20493;-75
2023/02/14 04:19:21;;;;;;;31.73;19.20;;;5.70;99.90;;;;;;5085283;28;20480;-74
2023/02/14 04:19:22;;;;;;;30.60;18.87;;;5.70;99.90;;;;;;5075801;28;20502;-74
2023/02/14 04:21:55;;;;;;;30.77;20.60;;;5.70;99.90;;;;;;5083355;28;21184;-75
2023/02/14 04:24:29;;;;;;;33.13;19.50;;;5.70;99.90;;;;;;5077134;28;20492;-75
2023/02/14 04:27:10;;;;;;;32.90;19.40;;;5.70;99.90;;;;;;5076697;28;20499;-75
2023/02/14 04:29:51;;;;;;;32.77;21.60;;;5.70;99.90;;;;;;5078055;28;20484;-75
2023/02/14 04:32:28;;;;;;;36.10;21.17;;;5.70;99.90;;;;;;5075781;28;20960;-74
2023/02/14 04:34:57;;;;;;;30.30;19.80;;;5.70;99.90;;;;;;5077874;28;20565;-74
2023/02/14 04:37:27;;;;;;;35.40;20.37;;;5.70;99.90;;;;;;5074636;28;20996;-73
2023/02/14 04:39:57;;;;;;;31.07;20.60;;;5.70;99.90;;;;;;5072336;28;21003;-74
2023/02/14 04:42:40;;;;;;;32.03;19.60;;;5.70;99.90;;;;;;5076580;28;20459;-74
2023/02/14 04:45:11;;;;;;;31.00;19.80;;;5.70;99.90;;;;;;5077743;28;20448;-74
2023/02/14 04:47:42;;;;;;;33.73;20.40;;;5.70;99.90;;;;;;5070394;28;20472;-74
2023/02/14 04:50:15;;;;;;;32.50;20.70;;;5.70;99.90;;;;;;5070516;28;20545;-74
2023/02/14 04:52:44;;;;;;;30.37;20.27;;;5.70;99.90;;;;;;5069390;28;21095;-74
2023/02/14 04:55:13;;;;;;;31.77;19.83;;;5.70;99.90;;;;;;5077774;28;20501;-74
2023/02/14 04:57:43;;;;;;;35.87;21.87;;;5.70;99.90;;;;;;5071951;28;20480;-74
2023/02/14 05:00:14;;;;;;;35.07;20.60;;;5.70;99.90;;;;;;5080530;28;20465;-73
2023/02/14 05:02:49;;;;;;;33.27;21.47;;;5.70;99.90;;;;;;5067011;28;20488;-72
2023/02/14 05:05:19;;;;;;;30.93;19.40;;;5.70;99.90;;;;;;5078141;28;20492;-73
2023/02/14 05:07:51;;;;;;;33.93;21.67;;;5.70;99.90;;;;;;5081617;28;20461;-73
2023/02/14 05:10:22;;;;;;;31.77;21.20;;;5.70;99.90;;;;;;5081369;28;20461;-73
2023/02/14 05:12:51;;;;;;;30.93;20.50;;;5.70;99.90;;;;;;5076614;28;20499;-73
2023/02/14 05:15:24;;;;;;;33.10;20.10;;;5.70;99.90;;;;;;5081491;28;20505;-73
2023/02/14 05:17:54;;;;;;;33.90;20.77;;;5.70;99.90;;;;;;5079116;28;20834;-72
2023/02/14 05:20:24;;;;;;;33.23;20.43;;;5.80;99.90;;;;;;5079830;28;20481;-73
2023/02/14 05:22:53;;;;;;;31.40;20.70;;;5.70;99.90;;;;;;5076931;28;20480;-73
2023/02/14 05:25:31;;;;;;;30.60;19.90;;;5.70;99.90;;;;;;5076840;28;20467;-72
2023/02/14 05:28:05;;;;;;;30.60;21.03;;;5.70;99.90;;;;;;5073215;28;20491;-73
2023/02/14 05:30:40;;;;;;;31.63;19.77;;;5.70;99.90;;;;;;5075323;28;20895;-75
2023/02/14 05:33:08;;;;;;;33.60;20.70;;;5.80;99.90;;;;;;5077457;28;20999;-73
2023/02/14 05:35:38;;;;;;;38.73;21.40;;;5.80;99.90;;;;;;5082506;28;20854;-74
2023/02/14 05:38:11;;;;;;;31.73;20.13;;;5.80;99.90;;;;;;5071874;28;20489;-73
2023/02/14 05:40:40;;;;;;;30.07;20.73;;;5.80;99.90;;;;;;5067949;28;20983;-74
2023/02/14 05:43:16;;;;;;;34.27;21.37;;;5.70;99.90;;;;;;5074753;28;20488;-74
2023/02/14 05:45:44;;;;;;;30.67;19.37;;;5.70;99.90;;;;;;5069327;28;20481;-75
2023/02/14 05:48:12;;;;;;;31.60;21.60;;;5.80;99.90;;;;;;5071282;28;20542;-74
2023/02/14 05:50:41;;;;;;;33.73;20.57;;;5.80;99.90;;;;;;5075346;28;20480;-74
2023/02/14 05:53:23;;;;;;;34.37;21.03;;;5.70;99.90;;;;;;5070534;28;20842;-74
2023/02/14 05:55:51;;;;;;;33.10;20.40;;;5.80;99.90;;;;;;5078758;28;20491;-73
2023/02/14 05:58:31;;;;;;;31.07;19.53;;;5.80;99.90;;;;;;5077282;28;20881;-74
2023/02/14 06:01:03;;;;;;;31.93;19.93;;;5.80;99.90;;;;;;5067686;28;21245;-73
2023/02/14 06:03:34;;;;;;;31.40;20.50;;;5.80;99.90;;;;;;5081302;28;20488;-75
2023/02/14 06:06:08;;;;;;;35.50;20.97;;;5.80;99.90;;;;;;5074169;28;20469;-74
2023/02/14 06:08:36;;;;;;;36.87;20.90;;;5.80;99.90;;;;;;5080152;28;20480;-74
2023/02/14 06:11:11;;;;;;;32.97;22.30;;;5.80;99.90;;;;;;5089945;28;20496;-74
2023/02/14 06:13:45;;;;;;;32.50;20.43;;;5.70;99.90;;;;;;5083558;28;21002;-74
2023/02/14 06:16:13;;;;;;;32.30;21.27;;;5.80;99.90;;;;;;5083070;28;20534;-76
2023/02/14 06:18:45;;;;;;;30.67;20.53;;;5.70;99.90;;;;;;5064922;28;20603;-74
2023/02/14 06:21:15;;;;;;;31.07;21.70;;;5.80;99.90;;;;;;5072769;28;20495;-75
2023/02/14 06:23:43;;;;;;;35.90;20.93;;;5.70;99.90;;;;;;5080748;28;21143;-76
2023/02/14 06:26:14;;;;;;;36.43;21.97;;;5.70;99.90;;;;;;5069284;28;20472;-74
2023/02/14 06:28:54;;;;;;;32.30;20.90;;;5.80;99.90;;;;;;5070138;28;20515;-74
2023/02/14 06:31:27;;;;;;;32.57;19.87;;;5.70;99.90;;;;;;5078325;28;20564;-74
2023/02/14 06:33:58;;;;;;;34.33;21.53;;;5.70;99.90;;;;;;5085918;28;20550;-74
2023/02/14 06:36:31;;;;;;;38.17;22.40;;;5.80;99.90;;;;;;5080775;28;20480;-74
2023/02/14 06:39:06;;;;;;;32.43;19.90;;;5.80;99.90;;;;;;5080048;28;20487;-75
2023/02/14 06:41:39;;;;;;;34.10;21.00;;;5.80;99.90;;;;;;5080422;28;20480;-75
2023/02/14 06:44:21;;;;;;;30.53;21.30;;;5.80;99.90;;;;;;5079697;28;20508;-75
2023/02/14 06:46:52;;;;;;;35.03;20.93;;;5.80;99.90;;;;;;5074225;28;20465;-75
2023/02/14 06:49:26;;;;;;;32.10;19.77;;;5.80;99.90;;;;;;5083846;28;20507;-76
2023/02/14 06:51:55;;;;;;;30.50;20.10;;;5.80;99.90;;;;;;5080051;28;20851;-75
2023/02/14 06:54:27;;;;;;;32.90;21.70;;;5.80;99.90;;;;;;5086146;28;20492;-75
2023/02/14 06:56:58;;;;;;;32.80;21.00;;;5.80;99.90;;;;;;5079119;28;20484;-75
2023/02/14 06:59:29;;;;;;;34.27;21.83;;;5.80;99.90;;;;;;5086382;28;20491;-75
2023/02/14 07:02:03;;;;;;;32.93;20.63;;;5.80;99.90;;;;;;5081444;28;20998;-75
2023/02/14 07:04:36;;;;;;;32.90;20.87;;;5.80;99.90;;;;;;5084149;28;21102;-75
2023/02/14 07:07:06;;;;;;;29.40;19.27;;;5.80;99.90;;;;;;5085316;28;20472;-76
2023/02/14 07:09:40;;;;;;;34.97;21.67;;;5.90;99.90;;;;;;5088960;28;20492;-75
2023/02/14 07:12:09;;;;;;;35.03;22.00;;;5.80;99.90;;;;;;5087885;28;20925;-75
2023/02/14 07:14:40;;;;;;;34.80;21.63;;;5.90;99.90;;;;;;5087832;28;20488;-75
2023/02/14 07:17:13;;;;;;;33.23;20.87;;;5.90;99.90;;;;;;5086326;28;20496;-75
2023/02/14 07:19:41;;;;;;;32.50;20.87;;;5.90;99.90;;;;;;5084948;28;20488;-75
2023/02/14 07:22:12;;;;;;;30.67;20.17;;;5.90;99.90;;;;;;5082541;28;20464;-75
2023/02/14 07:24:43;;;;;;;33.67;19.33;;;6.00;99.90;;;;;;5084643;28;20494;-76
2023/02/14 07:27:15;;;;;;;29.30;19.17;;;5.90;99.90;;;;;;5075649;28;20511;-76
2023/02/14 07:29:51;;;;;;;30.13;19.60;;;6.00;99.90;;;;;;5085353;28;20599;-75
2023/02/14 07:32:23;;;;;;;30.23;20.03;;;6.00;99.90;;;;;;5088476;28;20555;-75
2023/02/14 07:34:55;;;;;;;32.17;21.03;;;6.00;99.90;;;;;;5086771;28;20468;-75
2023/02/14 07:37:29;;;;;;;37.77;21.23;;;6.00;99.90;;;;;;5088309;28;20836;-75
2023/02/14 07:40:01;;;;;;;35.47;20.20;;;6.00;99.90;;;;;;5082641;28;20476;-76
2023/02/14 07:42:37;;;;;;;29.37;18.50;;;6.10;99.90;;;;;;5087347;28;21046;-75
2023/02/14 07:45:09;;;;;;;29.30;19.80;;;6.10;99.90;;;;;;5085805;22;21181;-77
2023/02/14 07:47:52;;;;;;;31.57;20.07;;;6.10;99.90;;;;;;5073659;28;20472;-77
2023/02/14 07:50:23;;;;;;;28.23;18.77;;;6.20;99.90;;;;;;5077811;28;20495;-77
2023/02/14 07:52:52;;;;;;;28.43;18.30;;;6.20;99.90;;;;;;5075401;28;20560;-77
2023/02/14 07:55:26;;;;;;;28.40;19.47;;;6.20;99.90;;;;;;5084602;28;20539;-77
2023/02/14 07:57:56;;;;;;;30.00;19.00;;;6.20;99.90;;;;;;5078812;28;20537;-78
2023/02/14 08:00:29;;;;;;;29.67;18.57;;;6.20;99.90;;;;;;5078196;28;20469;-78
2023/02/14 08:02:59;;;;;;;30.40;20.00;;;6.20;99.90;;;;;;5081648;28;20465;-77
2023/02/14 08:05:26;;;;;;;24.00;16.97;;;6.30;99.90;;;;;;5075197;28;20531;-77
2023/02/14 08:07:56;;;;;;;25.77;17.03;;;6.30;99.90;;;;;;5080474;28;20492;-77
2023/02/14 08:10:27;;;;;;;28.20;19.00;;;6.30;99.90;;;;;;5071901;28;20477;-77
2023/02/14 08:13:04;;;;;;;24.47;17.47;;;6.30;99.90;;;;;;5071973;28;20464;-78
2023/02/14 08:18:26;;;;;;;26.83;18.00;;;6.40;99.90;;;;;;5084340;28;20505;-78
2023/02/14 08:20:59;;;;;;;26.03;17.00;;;6.50;99.90;;;;;;5075290;28;20543;-76
2023/02/14 08:23:32;;;;;;;23.07;16.10;;;6.50;99.90;;;;;;5070154;28;20475;-77
2023/02/14 08:26:08;;;;;;;25.30;17.90;;;6.50;99.90;;;;;;5076383;28;20477;-77
2023/02/14 08:28:48;;;;;;;28.43;17.50;;;6.50;99.90;;;;;;5075945;28;20907;-78
2023/02/14 08:31:25;;;;;;;23.53;16.53;;;6.60;99.90;;;;;;5074373;28;20467;-78
2023/02/14 08:34:03;;;;;;;26.10;17.20;;;6.60;99.90;;;;;;5072738;28;20494;-77
2023/02/14 08:36:33;;;;;;;24.27;17.00;;;6.60;99.90;;;;;;5079967;28;20502;-78
2023/02/14 08:39:01;;;;;;;25.00;17.53;;;6.60;99.90;;;;;;5079270;28;20509;-77
2023/02/14 08:41:35;;;;;;;26.27;17.80;;;6.60;99.90;;;;;;5079375;28;20492;-77
2023/02/14 08:44:06;;;;;;;24.10;17.60;;;6.60;99.90;;;;;;5072405;28;20497;-77
2023/02/14 08:46:39;;;;;;;23.37;15.50;;;6.60;99.90;;;;;;5078728;28;20456;-77
2023/02/14 08:49:07;;;;;;;22.17;16.20;;;6.60;99.90;;;;;;5067195;28;20486;-77
2023/02/14 08:51:36;;;;;;;22.63;15.60;;;6.60;99.90;;;;;;5064411;28;20464;-77
2023/02/14 08:54:06;;;;;;;24.90;16.50;;;6.60;99.90;;;;;;5074917;28;20559;-76
2023/02/14 08:56:37;;;;;;;24.57;16.07;;;6.60;99.90;;;;;;5068180;28;20976;-76
2023/02/14 08:59:10;;;;;;;23.87;16.13;;;6.70;99.90;;;;;;5071390;28;20497;-76
2023/02/14 09:01:54;;;;;;;;;;;;;;;;;;;;;
2023/02/14 09:04:27;;;;;;;23.13;15.80;;;6.70;99.90;;;;;;5069922;28;20482;-78
2023/02/14 09:07:03;;;;;;;23.97;16.60;;;6.80;99.90;;;;;;5076160;28;20486;-77
2023/02/14 09:09:34;;;;;;;24.23;17.50;;;6.80;99.90;;;;;;5074460;28;20576;-79
2023/02/14 09:12:04;;;;;;;24.23;16.60;;;6.90;99.90;;;;;;5077586;28;20473;-77
2023/02/14 09:14:37;;;;;;;22.17;15.47;;;6.90;99.90;;;;;;5078132;28;20499;-77
2023/02/14 09:17:09;;;;;;;24.40;16.87;;;6.90;99.90;;;;;;5077554;28;20547;-78
2023/02/14 09:19:40;;;;;;;23.60;15.67;;;7.00;99.90;;;;;;5071039;28;21149;-77
2023/02/14 09:22:11;;;;;;;23.73;16.60;;;7.00;99.90;;;;;;5078122;28;20474;-80
2023/02/14 09:24:45;;;;;;;23.53;16.73;;;7.00;99.90;;;;;;5071939;28;20488;-78
2023/02/14 09:27:14;;;;;;;23.83;14.93;;;7.10;99.90;;;;;;5072229;28;20525;-77
2023/02/14 09:29:43;;;;;;;21.00;15.40;;;7.10;99.90;;;;;;5075329;28;20481;-77
2023/02/14 09:32:16;;;;;;;23.30;16.37;;;7.20;99.90;;;;;;5074756;28;20487;-77
2023/02/14 09:34:46;;;;;;;22.27;16.03;;;7.20;99.90;;;;;;5067674;28;20491;-78
2023/02/14 09:37:15;;;;;;;24.90;16.60;;;7.20;99.90;;;;;;5070537;28;20551;-77
2023/02/14 09:39:43;;;;;;;21.60;16.20;;;7.30;99.90;;;;;;5071532;28;21008;-77
2023/02/14 09:42:37;;;;;;;21.70;15.70;;;7.30;99.90;;;;;;5074477;28;20470;-77
2023/02/14 09:45:12;;;;;;;21.83;15.83;;;7.40;99.90;;;;;;5072657;28;20501;-78
2023/02/14 09:47:49;;;;;;;21.00;16.07;;;7.40;99.90;;;;;;5075387;28;20481;-78
2023/02/14 09:50:25;;;;;;;21.47;14.97;;;7.40;99.90;;;;;;5068222;28;20471;-77
2023/02/14 09:53:02;;;;;;;22.30;16.80;;;7.50;99.90;;;;;;5081555;28;20500;-78
2023/02/14 09:55:43;;;;;;;24.27;17.27;;;7.50;99.90;;;;;;5074369;28;20485;-79
2023/02/14 09:58:17;;;;;;;23.30;17.07;;;7.50;99.90;;;;;;5069162;28;21004;-77
2023/02/14 10:00:48;;;;;;;18.90;14.93;;;7.60;99.90;;;;;;5080381;28;20469;-77
2023/02/14 10:03:42;;;;;;;23.80;16.73;;;7.60;99.90;;;;;;5075243;28;20538;-77
2023/02/14 10:06:26;;;;;;;19.53;14.93;;;7.60;99.90;;;;;;5065656;28;20470;-77
2023/02/14 10:09:10;;;;;;;20.13;15.60;;;7.70;99.90;;;;;;5072448;28;20493;-81
2023/02/14 10:11:49;;;;;;;22.13;15.70;;;7.80;99.90;;;;;;5068471;28;20469;-77
2023/02/14 10:14:26;;;;;;;20.30;15.53;;;7.90;99.90;;;;;;5073440;28;21474;-78
2023/02/14 10:17:04;;;;;;;21.40;15.77;;;7.90;99.90;;;;;;5066999;28;20477;-78
2023/02/14 10:19:42;;;;;;;19.33;14.87;;;8.00;99.90;;;;;;5075854;28;20481;-78
2023/02/14 10:22:18;;;;;;;20.50;15.43;;;8.10;99.90;;;;;;5063945;28;20477;-79
2023/02/14 10:24:57;;;;;;;23.03;15.87;;;8.20;99.90;;;;;;5074655;28;20545;-78
2023/02/14 10:27:34;;;;;;;19.17;14.50;;;8.20;99.90;;;;;;5071483;28;20465;-78
2023/02/14 10:30:11;;;;;;;22.70;16.13;;;8.30;99.90;;;;;;5074413;28;20490;-77
2023/02/14 10:32:47;;;;;;;19.43;15.10;;;8.40;99.90;;;;;;5067809;28;20554;-77
2023/02/14 10:35:30;;;;;;;20.50;14.50;;;8.50;99.90;;;;;;5059591;28;20551;-77
2023/02/14 10:38:16;;;;;;;20.67;15.23;;;8.60;99.90;;;;;;5074023;28;21001;-79
2023/02/14 10:41:17;;;;;;;19.57;15.30;;;8.70;99.90;;;;;;5077318;28;20483;-78
2023/02/14 10:44:02;;;;;;;21.90;16.10;;;8.70;99.90;;;;;;5078670;28;20580;-77
2023/02/14 10:46:40;;;;;;;20.90;15.57;;;8.80;99.90;;;;;;5067235;28;20465;-78
2023/02/14 10:49:31;;;;;;;18.80;14.63;;;8.90;99.90;;;;;;5062534;28;20543;-78
2023/02/14 10:52:19;;;;;;;18.17;14.37;;;9.00;99.90;;;;;;5068047;28;20465;-77
2023/02/14 10:54:59;;;;;;;20.80;16.53;;;9.00;99.90;;;;;;5071331;28;20489;-79
2023/02/14 10:57:33;;;;;;;21.33;14.57;;;9.10;99.90;;;;;;5076147;28;20468;-77
2023/02/14 11:00:07;;;;;;;23.30;17.00;;;9.20;99.90;;;;;;5063996;28;20899;-77
2023/02/14 11:02:42;;;;;;;20.40;15.20;;;9.20;99.90;;;;;;5071426;28;20473;-77
2023/02/14 11:05:44;;;;;;;22.13;16.00;;;9.30;99.90;;;;;;5071029;28;20489;-77
2023/02/14 11:08:26;;;;;;;23.03;16.97;;;9.40;99.90;;;;;;5066074;28;20493;-77
2023/02/14 11:11:22;;;;;;;19.67;15.87;;;9.40;99.90;;;;;;5066574;28;20465;-77
2023/02/14 11:13:54;;;;;;;19.57;15.00;;;9.50;99.90;;;;;;5071186;28;20483;-78
2023/02/14 11:16:38;;;;;;;20.70;16.07;;;9.60;99.90;;;;;;5072978;28;20491;-77
2023/02/14 11:19:09;;;;;;;21.30;15.70;;;9.70;99.90;;;;;;5067729;28;20969;-77
2023/02/14 11:21:39;;;;;;;19.70;15.63;;;9.80;99.90;;;;;;5063852;28;20481;-77
2023/02/14 11:24:27;;;;;;;24.07;17.60;;;9.90;99.90;;;;;;5066891;28;20489;-77
2023/02/14 11:26:59;;;;;;;22.30;16.43;;;10.00;99.90;;;;;;5058486;28;20477;-77
2023/02/14 11:29:32;;;;;;;20.63;15.60;;;10.10;99.90;;;;;;5070471;28;20531;-77
2023/02/14 11:32:08;;;;;;;21.10;16.70;;;10.20;99.90;;;;;;5072702;28;20470;-77
2023/02/14 11:34:40;;;;;;;21.87;16.70;;;10.30;99.90;;;;;;5070116;28;20497;-77
2023/02/14 11:37:26;;;;;;;22.83;17.53;;;10.40;99.90;;;;;;5061938;28;20465;-77
2023/02/14 11:40:05;;;;;;;22.40;16.53;;;10.50;99.90;;;;;;5068076;28;20488;-77
2023/02/14 11:42:47;;;;;;;21.20;15.97;;;10.50;99.90;;;;;;5071618;28;20573;-77
2023/02/14 11:45:30;;;;;;;21.77;16.70;;;10.70;99.90;;;;;;5062750;28;21019;-78
2023/02/14 11:48:26;;;;;;;19.97;15.40;;;10.80;99.90;;;;;;5070165;28;20492;-78
2023/02/14 11:51:08;;;;;;;21.70;16.40;;;10.90;99.90;;;;;;5056502;28;21263;-78
2023/02/14 11:53:51;;;;;;;21.63;16.20;;;11.20;99.90;;;;;;5063828;28;20500;-76
2023/02/14 11:56:45;;;;;;;21.07;15.80;;;11.60;99.90;;;;;;5065812;28;20823;-76
2023/02/14 11:59:23;;;;;;;19.53;16.23;;;11.90;99.90;;;;;;5069377;28;20481;-76
2023/02/14 12:01:59;;;;;;;17.03;15.00;;;12.60;99.90;;;;;;5059687;28;20480;-76
2023/02/14 12:04:37;;;;;;;17.93;15.80;;;13.80;99.90;;;;;;5064244;28;20504;-76
2023/02/14 12:07:22;;;;;;;17.50;15.57;;;16.40;99.90;;;;;;5069237;28;20466;-77
2023/02/14 12:10:24;;;;;;;18.03;16.10;;;19.30;99.90;;;;;;5057453;28;20474;-77
2023/02/14 12:13:02;;;;;;;16.67;14.97;;;22.20;78.40;;;;;;5058107;28;20476;-77
2023/02/14 12:15:39;;;;;;;17.50;15.90;;;25.50;55.50;;;;;;5066650;28;20489;-77
2023/02/14 12:18:37;;;;;;;18.17;16.57;;;28.30;45.30;;;;;;5071189;28;20565;-77
2023/02/14 12:21:43;;;;;;;17.43;16.03;;;30.50;39.50;;;;;;5062171;28;20503;-78
2023/02/14 12:24:19;;;;;;;15.90;14.60;;;31.60;35.50;;;;;;5024904;28;20562;-75
2023/02/14 12:26:55;;;;;;;17.77;16.30;;;32.90;32.90;;;;;;5056331;28;20485;-75
2023/02/14 12:29:37;;;;;;;15.63;14.53;;;33.50;30.70;;;;;;5068852;28;20469;-75
2023/02/14 12:32:29;;;;;;;15.77;14.63;;;34.00;30.00;;;;;;5063919;28;20548;-76
2023/02/14 12:35:13;;;;;;;16.20;15.00;;;34.60;29.10;;;;;;5066334;28;20511;-77
2023/02/14 12:37:55;;;;;;;15.40;14.30;;;35.00;28.30;;;;;;5060069;28;20464;-76
2023/02/14 12:40:58;;;;;;;17.60;16.42;;;35.10;27.40;;;;;;5071362;28;20766;-76
2023/02/14 12:43:46;;;;;;;15.75;14.65;;;35.10;27.40;;;;;;5057624;28;20215;-77
2023/02/14 12:46:37;;;;;;;16.63;15.45;;;35.10;27.30;;;;;;5054688;28;20581;-77
2023/02/14 12:49:31;;;;;;;15.32;14.38;;;35.10;26.90;;;;;;5056547;28;20227;-75
2023/02/14 12:52:09;;;;;;;15.88;14.88;;;35.00;26.70;;;;;;5070695;28;20624;-75
2023/02/14 12:54:54;;;;;;;15.93;14.93;;;35.10;26.20;;;;;;5058678;28;20730;-75
2023/02/14 12:57:35;;;;;;;15.50;14.50;;;34.80;26.70;;;;;;5061665;28;20213;-75
2023/02/14 13:00:19;;;;;;;15.13;14.13;;;34.70;26.50;;;;;;5059765;28;20219;-75
2023/02/14 13:03:09;;;;;;;15.50;14.50;;;34.50;27.30;;;;;;5062788;28;20217;-75
2023/02/14 13:05:58;;;;;;;14.23;13.32;;;34.40;27.00;;;;;;5057603;28;20357;-75
2023/02/14 13:08:50;;;;;;;16.55;15.27;;;34.00;26.90;;;;;;5062182;28;20235;-75
2023/02/14 13:11:33;;;;;;;16.10;15.05;;;33.90;27.00;;;;;;5067287;28;20253;-76
2023/02/14 13:14:33;;;;;;;17.23;16.13;;;33.60;26.90;;;;;;5061193;28;20227;-76
2023/02/14 13:17:20;;;;;;;16.05;15.00;;;33.00;27.00;;;;;;5057960;28;20202;-76
2023/02/14 13:20:05;;;;;;;16.52;15.32;;;33.10;27.00;;;;;;5062028;28;20242;-76
2023/02/14 13:22:39;;;;;;;16.63;15.45;;;32.80;27.40;;;;;;5057319;28;20713;-75
2023/02/14 13:25:21;;;;;;;16.98;15.88;;;32.60;26.90;;;;;;5053765;28;20225;-76
2023/02/14 13:27:52;;;;;;;17.00;15.90;;;32.20;27.10;;;;;;5059781;28;20207;-75
2023/02/14 13:30:27;;;;;;;15.85;14.85;;;31.50;27.70;;;;;;5059160;28;20234;-75
2023/02/14 13:33:03;;;;;;;16.40;15.25;;;31.10;28.20;;;;;;5065850;28;20210;-75
2023/02/14 13:35:44;;;;;;;17.75;16.55;;;30.80;28.60;;;;;;5059985;28;20683;-75
2023/02/14 13:38:17;;;;;;;17.08;15.88;;;30.40;29.20;;;;;;5050472;28;20303;-75
2023/02/14 13:40:47;;;;;;;16.20;15.10;;;30.10;29.70;;;;;;5055477;28;20198;-75
2023/02/14 13:43:47;;;;;;;17.10;15.90;;;29.90;29.60;;;;;;5055316;28;20211;-75